This is the latest recevied weather packets stored in our database for station/object KC0CAU. If no packets are shown the sender has not sent any weather packets the latest 10 day(s).
| Time | Temp. | Humidity | Pressure | Rain* | Wind** | Luminosity | Snow |
|---|---|---|---|---|---|---|---|
| 1778303739 | 8.33° C | 86% | 1008.9 hPa | 0.25 mm | - | - | - |
| 1778302839 | 8.33° C | 84% | 1009 hPa | 0 mm | - | - | - |
| 1778301932 | 8.89° C | 80% | 1009 hPa | 0 mm | - | - | - |
| 1778301041 | 9.44° C | 75% | 1008.5 hPa | 0 mm | - | - | - |
| 1778300129 | 10° C | 73% | 1008.4 hPa | 0 mm | - | - | - |
| 1778299228 | 10.56° C | 70% | 1007.9 hPa | 0 mm | - | - | - |
| 1778298326 | 11.11° C | 67% | 1007.8 hPa | 0 mm | - | - | - |
| 1778297425 | 12.22° C | 63% | 1007.7 hPa | 0 mm | - | - | - |
| 1778296524 | 13.89° C | 57% | 1006.9 hPa | 0 mm | - | - | - |
| 1778295632 | 14.44° C | 54% | 1006.3 hPa | 0 mm | - | - | - |
| 1778294721 | 14.44° C | 55% | 1005.9 hPa | 0 mm | - | - | - |
| 1778293825 | 15.56° C | 53% | 1005.5 hPa | 0 mm | - | - | - |
| 1778292922 | 19.44° C | 34% | 1004.3 hPa | 0 mm | - | - | - |
| 1778292019 | 19.44° C | 33% | 1004.6 hPa | 0 mm | - | - | - |
| 1778291118 | 18.89° C | 34% | 1004.4 hPa | 0 mm | - | - | - |
| 1778290239 | 18.89° C | 34% | 1004.3 hPa | 0 mm | - | - | - |
| 1778289316 | 19.44° C | 33% | 1004.5 hPa | 0 mm | - | - | - |
| 1778288423 | 19.44° C | 32% | 1004.6 hPa | 0 mm | - | - | - |
| 1778287532 | 20° C | 31% | 1004.8 hPa | 0 mm | - | - | - |
| 1778286611 | 20° C | 31% | 1005.1 hPa | 0 mm | - | - | - |
| 1778285710 | 20.56° C | 29% | 1005.1 hPa | 0 mm | - | - | - |
| 1778284809 | 20.56° C | 29% | 1005.4 hPa | 0 mm | - | - | - |
| 1778283908 | 20.56° C | 29% | 1005.5 hPa | 0 mm | - | - | - |
| 1778283007 | 20.56° C | 28% | 1005.6 hPa | 0 mm | - | - | - |
| 1778282106 | 20.56° C | 29% | 1005.8 hPa | 0 mm | - | - | - |
* Rain latest hour (hover to see other rain measurements)
** Current wind speed in m/s (hover to see current wind gust speed)